createdAt,value
2017-07-25T00:00:33.261Z,56.9
2017-07-25T00:01:13.714Z,56.9
2017-07-25T00:01:54.172Z,57.29
2017-07-25T00:02:34.622Z,57.29
2017-07-25T00:03:15.084Z,57.09
2017-07-25T00:03:55.535Z,57.09
2017-07-25T00:04:35.978Z,57.09
2017-07-25T00:05:16.433Z,57.09
2017-07-25T00:05:56.887Z,56.99
2017-07-25T00:06:37.345Z,57.09
2017-07-25T00:07:17.807Z,57.09
2017-07-25T00:07:58.261Z,57.09
2017-07-25T00:08:38.711Z,56.99
2017-07-25T00:09:19.173Z,57.09
2017-07-25T00:09:59.622Z,57.09
2017-07-25T00:10:40.064Z,57.09
2017-07-25T00:11:20.526Z,57.19
2017-07-25T00:12:00.978Z,57.09
2017-07-25T00:12:41.431Z,57.09
2017-07-25T00:13:21.887Z,57.29
2017-07-25T00:14:02.350Z,57.09
2017-07-25T00:14:42.799Z,57.09
2017-07-25T00:15:23.241Z,57.09
2017-07-25T00:16:03.699Z,57.09
2017-07-25T00:16:44.152Z,57.29
2017-07-25T00:17:24.608Z,57.29
2017-07-25T00:18:05.065Z,57.16
2017-07-25T00:18:45.528Z,57.09
2017-07-25T00:19:25.981Z,56.9
2017-07-25T00:20:06.439Z,56.87
2017-07-25T00:20:46.890Z,56.9
2017-07-25T00:21:27.345Z,56.99
2017-07-25T00:22:07.804Z,56.99
2017-07-25T00:22:48.273Z,56.9
2017-07-25T00:23:28.719Z,56.71
2017-07-25T00:24:09.179Z,56.8
2017-07-25T00:24:49.654Z,57.09
2017-07-25T00:25:30.093Z,57.19
2017-07-25T00:26:10.554Z,56.71
2017-07-25T00:26:51.012Z,57.09
2017-07-25T00:27:31.463Z,56.71
2017-07-25T00:28:11.919Z,57.09
2017-07-25T00:28:52.379Z,56.8
2017-07-25T00:29:32.844Z,56.71
2017-07-25T00:30:13.293Z,57.09
2017-07-25T00:30:53.745Z,57.06
2017-07-25T00:31:34.203Z,56.8
2017-07-25T00:32:14.652Z,56.87
2017-07-25T00:32:55.104Z,56.87
2017-07-25T00:33:35.558Z,56.96
2017-07-25T00:34:16.024Z,57.26
2017-07-25T00:34:56.475Z,56.96
2017-07-25T00:35:36.932Z,56.96
2017-07-25T00:36:17.384Z,57.26
2017-07-25T00:36:57.832Z,57.45
2017-07-25T00:37:38.289Z,57.16
2017-07-25T00:38:18.742Z,56.96
2017-07-25T00:38:59.196Z,56.96
2017-07-25T00:39:39.656Z,57.64
2017-07-25T00:40:20.135Z,57.84
2017-07-25T00:41:00.586Z,57.26
2017-07-25T00:41:41.046Z,56.87
2017-07-25T00:42:21.497Z,57.16
2017-07-25T00:43:01.948Z,57.16
2017-07-25T00:43:42.409Z,57.06
2017-07-25T00:44:22.866Z,57.06
2017-07-25T00:45:03.319Z,57.06
2017-07-25T00:45:43.774Z,57.16
2017-07-25T00:46:24.234Z,57.26
2017-07-25T00:47:04.690Z,57.26
2017-07-25T00:47:45.136Z,57.26
2017-07-25T00:48:25.587Z,56.96
2017-07-25T00:49:06.046Z,57.06
2017-07-25T00:49:46.484Z,56.87
2017-07-25T00:50:26.942Z,56.87
2017-07-25T00:51:07.392Z,56.87
2017-07-25T00:51:47.847Z,57.06
2017-07-25T00:52:28.303Z,56.68
2017-07-25T00:53:08.749Z,56.77
2017-07-25T00:53:49.202Z,56.77
2017-07-25T00:54:29.662Z,56.77
2017-07-25T00:55:10.131Z,56.68
2017-07-25T00:55:50.614Z,56.68
2017-07-25T00:56:31.069Z,56.87
2017-07-25T00:57:11.525Z,56.96
2017-07-25T00:57:51.981Z,56.77
2017-07-25T00:58:32.436Z,56.87
2017-07-25T00:59:12.891Z,56.77
2017-07-25T00:59:53.350Z,56.77
2017-07-25T01:00:33.802Z,56.68
2017-07-25T01:01:14.255Z,56.87
2017-07-25T01:01:54.799Z,56.87
2017-07-25T01:02:35.184Z,56.68
2017-07-25T01:03:15.647Z,56.77
2017-07-25T01:03:56.103Z,56.96
2017-07-25T01:04:36.554Z,57.06
2017-07-25T01:05:17.006Z,56.96
2017-07-25T01:05:57.461Z,57.06
2017-07-25T01:06:37.947Z,57.16
2017-07-25T01:07:18.378Z,56.96
2017-07-25T01:07:58.834Z,57.45
2017-07-25T01:08:39.293Z,57.16
2017-07-25T01:09:19.747Z,57.84
2017-07-25T01:10:00.199Z,57.06
2017-07-25T01:10:40.649Z,57.35
2017-07-25T01:11:21.108Z,57.45
2017-07-25T01:12:01.558Z,57.06
2017-07-25T01:12:42.012Z,57.06
2017-07-25T01:13:22.469Z,57.64
2017-07-25T01:14:02.953Z,57.64
2017-07-25T01:14:43.369Z,57.64
2017-07-25T01:15:23.814Z,57.64
2017-07-25T01:16:04.268Z,57.64
2017-07-25T01:16:44.725Z,57.64
2017-07-25T01:17:25.181Z,57.64
2017-07-25T01:18:05.640Z,57.54
2017-07-25T01:18:46.088Z,57.26
2017-07-25T01:19:26.555Z,57.35
2017-07-25T01:20:07.005Z,57.35
2017-07-25T01:20:47.459Z,57.54
2017-07-25T01:21:27.917Z,57.54
2017-07-25T01:22:08.371Z,57.26
2017-07-25T01:22:48.830Z,57.26
2017-07-25T01:23:29.289Z,57.45
2017-07-25T01:24:09.731Z,57.45
2017-07-25T01:24:50.189Z,57.54
2017-07-25T01:25:30.641Z,57.35
2017-07-25T01:26:11.106Z,57.35
2017-07-25T01:26:51.562Z,57.45
2017-07-25T01:27:32.017Z,57.54
2017-07-25T01:28:12.473Z,57.45
2017-07-25T01:28:52.925Z,57.54
2017-07-25T01:29:33.377Z,57.54
2017-07-25T01:30:13.817Z,57.16
2017-07-25T01:30:54.269Z,57.45
2017-07-25T01:31:34.727Z,57.35
2017-07-25T01:32:15.182Z,57.54
2017-07-25T01:32:55.642Z,57.26
2017-07-25T01:33:36.096Z,57.35
2017-07-25T01:34:16.553Z,57.35
2017-07-25T01:34:57.008Z,57.26
2017-07-25T01:35:37.464Z,57.35
2017-07-25T01:36:17.918Z,57.35
2017-07-25T01:36:58.367Z,57.45
2017-07-25T01:37:38.821Z,57.35
2017-07-25T01:38:19.272Z,57.32
2017-07-25T01:38:59.727Z,57.42
2017-07-25T01:39:40.182Z,57.23
2017-07-25T01:40:20.637Z,57.42
2017-07-25T01:41:01.093Z,57.32
2017-07-25T01:41:41.539Z,57.32
2017-07-25T01:42:21.994Z,57.32
2017-07-25T01:43:02.462Z,57.35
2017-07-25T01:43:42.919Z,57.32
2017-07-25T01:44:23.378Z,57.35
2017-07-25T01:45:03.827Z,57.32
2017-07-25T01:45:44.280Z,57.32
2017-07-25T01:46:24.734Z,57.32
2017-07-25T01:47:05.196Z,57.32
2017-07-25T01:47:45.638Z,57.32
2017-07-25T01:48:26.106Z,57.23
2017-07-25T01:49:06.544Z,57.23
2017-07-25T01:49:47.004Z,57.26
2017-07-25T01:50:27.455Z,57.23
2017-07-25T01:51:07.898Z,57.54
2017-07-25T01:51:48.354Z,57.26
2017-07-25T01:52:28.806Z,57.45
2017-07-25T01:53:09.264Z,57.54
2017-07-25T01:53:49.720Z,57.54
2017-07-25T01:54:30.178Z,57.35
2017-07-25T01:55:10.639Z,57.64
2017-07-25T01:55:51.096Z,57.35
2017-07-25T01:56:31.576Z,57.45
2017-07-25T01:57:12.013Z,57.54
2017-07-25T01:57:52.470Z,57.26
2017-07-25T01:58:32.930Z,57.52
2017-07-25T01:59:13.395Z,57.23
2017-07-25T01:59:53.848Z,57.32
2017-07-25T02:00:34.305Z,57.26
2017-07-25T02:01:14.760Z,57.35
2017-07-25T02:01:55.222Z,57.26
2017-07-25T02:02:35.680Z,57.32
2017-07-25T02:03:16.128Z,57.32
2017-07-25T02:03:56.591Z,57.35
2017-07-25T02:04:37.041Z,57.32
2017-07-25T02:05:17.493Z,57.35
2017-07-25T02:05:57.956Z,57.42
2017-07-25T02:06:38.415Z,57.42
2017-07-25T02:07:18.860Z,57.32
2017-07-25T02:07:59.317Z,57.32
2017-07-25T02:08:39.769Z,57.32
2017-07-25T02:09:20.235Z,57.32
2017-07-25T02:10:00.690Z,57.32
2017-07-25T02:10:41.151Z,57.32
2017-07-25T02:11:21.610Z,57.42
2017-07-25T02:12:02.067Z,57.32
2017-07-25T02:12:42.528Z,57.52
2017-07-25T02:13:22.975Z,57.42
2017-07-25T02:14:03.419Z,57.52
2017-07-25T02:14:43.877Z,57.62
2017-07-25T02:15:24.336Z,57.71
2017-07-25T02:16:04.786Z,57.42
2017-07-25T02:16:45.242Z,57.62
2017-07-25T02:17:25.702Z,57.42
2017-07-25T02:18:06.159Z,57.9
2017-07-25T02:18:46.626Z,57.42
2017-07-25T02:19:27.086Z,57.42
2017-07-25T02:20:07.557Z,57.52
2017-07-25T02:20:48.015Z,57.52
2017-07-25T02:21:28.474Z,57.62
2017-07-25T02:22:08.934Z,57.52
2017-07-25T02:22:49.392Z,57.71
2017-07-25T02:23:29.850Z,57.71
2017-07-25T02:24:10.304Z,57.52
2017-07-25T02:24:50.757Z,57.81
2017-07-25T02:25:31.230Z,57.42
2017-07-25T02:26:11.663Z,57.42
2017-07-25T02:26:52.124Z,57.81
2017-07-25T02:27:32.585Z,57.68
2017-07-25T02:28:13.040Z,57.68
2017-07-25T02:28:53.492Z,57.97
2017-07-25T02:29:33.947Z,57.78
2017-07-25T02:30:14.411Z,57.68
2017-07-25T02:30:54.870Z,57.78
2017-07-25T02:31:35.312Z,57.78
2017-07-25T02:32:15.792Z,57.78
2017-07-25T02:32:56.234Z,57.68
2017-07-25T02:33:36.690Z,57.59
2017-07-25T02:34:17.135Z,57.87
2017-07-25T02:34:57.598Z,57.59
2017-07-25T02:35:38.064Z,57.97
2017-07-25T02:36:18.514Z,58.17
2017-07-25T02:36:58.969Z,58.07
2017-07-25T02:37:39.418Z,57.85
2017-07-25T02:38:19.881Z,58.07
2017-07-25T02:39:00.336Z,57.97
2017-07-25T02:39:40.796Z,57.68
2017-07-25T02:40:21.248Z,57.78
2017-07-25T02:41:01.706Z,57.87
2017-07-25T02:41:42.164Z,57.68
2017-07-25T02:42:22.617Z,57.59
2017-07-25T02:43:03.067Z,57.68
2017-07-25T02:43:43.524Z,57.78
2017-07-25T02:44:23.982Z,57.68
2017-07-25T02:45:04.436Z,57.78
2017-07-25T02:45:44.891Z,57.59
2017-07-25T02:46:25.349Z,57.59
2017-07-25T02:47:05.806Z,57.68
2017-07-25T02:47:46.265Z,57.68
2017-07-25T02:48:26.721Z,58.07
2017-07-25T02:49:07.180Z,57.87
2017-07-25T02:49:47.638Z,57.59
2017-07-25T02:50:28.098Z,57.49
2017-07-25T02:51:08.561Z,57.78
2017-07-25T02:51:49.018Z,57.59
2017-07-25T02:52:29.476Z,57.59
2017-07-25T02:53:09.933Z,57.78
2017-07-25T02:53:50.392Z,57.68
2017-07-25T02:54:30.862Z,57.78
2017-07-25T02:55:11.326Z,57.78
2017-07-25T02:55:51.784Z,57.78
2017-07-25T02:56:32.239Z,57.68
2017-07-25T02:57:12.691Z,57.78
2017-07-25T02:57:53.147Z,57.97
2017-07-25T02:58:33.609Z,57.78
2017-07-25T02:59:14.063Z,57.68
2017-07-25T02:59:54.517Z,57.78
2017-07-25T03:00:34.974Z,57.78
2017-07-25T03:01:15.436Z,57.87
2017-07-25T03:01:55.893Z,57.87
2017-07-25T03:02:36.353Z,57.39
2017-07-25T03:03:16.804Z,57.87
2017-07-25T03:03:57.267Z,57.87
2017-07-25T03:04:37.710Z,57.68
2017-07-25T03:05:18.166Z,57.87
2017-07-25T03:05:58.615Z,57.49
2017-07-25T03:06:39.077Z,57.87
2017-07-25T03:07:19.527Z,57.78
2017-07-25T03:07:59.993Z,57.39
2017-07-25T03:08:40.452Z,57.39
2017-07-25T03:09:20.907Z,57.78
2017-07-25T03:10:01.367Z,57.81
2017-07-25T03:10:41.823Z,57.81
2017-07-25T03:11:22.272Z,57.78
2017-07-25T03:12:02.728Z,57.59
2017-07-25T03:12:43.183Z,57.62
2017-07-25T03:13:23.634Z,57.81
2017-07-25T03:14:04.087Z,57.52
2017-07-25T03:14:44.541Z,57.81
2017-07-25T03:15:25.013Z,57.71
2017-07-25T03:16:05.469Z,57.52
2017-07-25T03:16:45.924Z,57.52
2017-07-25T03:17:26.377Z,57.52
2017-07-25T03:18:06.829Z,57.71
2017-07-25T03:18:47.278Z,57.62
2017-07-25T03:19:27.762Z,57.42
2017-07-25T03:20:08.216Z,57.81
2017-07-25T03:20:48.671Z,57.71
2017-07-25T03:21:29.131Z,57.81
2017-07-25T03:22:09.584Z,57.62
2017-07-25T03:22:50.041Z,57.42
2017-07-25T03:23:30.499Z,57.81
2017-07-25T03:24:10.957Z,58
2017-07-25T03:24:51.413Z,57.71
2017-07-25T03:25:31.871Z,57.9
2017-07-25T03:26:12.320Z,57.81
2017-07-25T03:26:52.780Z,57.71
2017-07-25T03:27:33.241Z,57.81
2017-07-25T03:28:13.695Z,57.81
2017-07-25T03:28:54.150Z,58
2017-07-25T03:29:34.623Z,57.81
2017-07-25T03:30:15.099Z,57.71
2017-07-25T03:30:55.555Z,57.71
2017-07-25T03:31:36.012Z,57.71
2017-07-25T03:32:16.466Z,57.71
2017-07-25T03:32:56.954Z,57.52
2017-07-25T03:33:37.408Z,57.52
2017-07-25T03:34:17.864Z,57.9
2017-07-25T03:34:58.319Z,58
2017-07-25T03:35:38.778Z,57.71
2017-07-25T03:36:19.234Z,57.71
2017-07-25T03:36:59.692Z,58.1
2017-07-25T03:37:40.151Z,57.62
2017-07-25T03:38:20.605Z,57.81
2017-07-25T03:39:01.060Z,58.29
2017-07-25T03:39:41.518Z,58.1
2017-07-25T03:40:21.977Z,58.29
2017-07-25T03:41:02.429Z,58
2017-07-25T03:41:42.886Z,58.1
2017-07-25T03:42:23.347Z,58
2017-07-25T03:43:03.793Z,58.39
2017-07-25T03:43:44.249Z,58.1
2017-07-25T03:44:24.691Z,58
2017-07-25T03:45:05.152Z,58.29
2017-07-25T03:45:45.615Z,58.1
2017-07-25T03:46:26.075Z,58.19
2017-07-25T03:47:06.532Z,58.39
2017-07-25T03:47:46.977Z,58.77
2017-07-25T03:48:27.436Z,58.51
2017-07-25T03:49:07.883Z,58.32
2017-07-25T03:49:48.342Z,58.29
2017-07-25T03:50:28.801Z,58.39
2017-07-25T03:51:09.252Z,58.8
2017-07-25T03:51:49.703Z,58.9
2017-07-25T03:52:30.152Z,58.58
2017-07-25T03:53:10.607Z,58.48
2017-07-25T03:53:51.070Z,58.87
2017-07-25T03:54:31.519Z,59.25
2017-07-25T03:55:11.981Z,58.97
2017-07-25T03:55:52.459Z,59.16
2017-07-25T03:56:32.907Z,59.16
2017-07-25T03:57:13.380Z,59.09
2017-07-25T03:57:53.838Z,59.19
2017-07-25T03:58:34.287Z,59.19
2017-07-25T03:59:14.748Z,59.19
2017-07-25T03:59:55.206Z,59
2017-07-25T04:00:35.654Z,59
2017-07-25T04:01:16.112Z,59.09
2017-07-25T04:01:56.571Z,59.38
2017-07-25T04:02:37.028Z,58.7
2017-07-25T04:03:17.488Z,58.9
2017-07-25T04:03:57.945Z,58.9
2017-07-25T04:04:38.397Z,58.7
2017-07-25T04:05:18.844Z,58.51
2017-07-25T04:05:59.299Z,58.61
2017-07-25T04:06:39.747Z,58.9
2017-07-25T04:07:20.219Z,58.7
2017-07-25T04:08:00.681Z,58.22
2017-07-25T04:08:41.136Z,58.22
2017-07-25T04:09:21.591Z,58.42
2017-07-25T04:10:02.106Z,58.32
2017-07-25T04:10:42.560Z,58.51
2017-07-25T04:11:23.019Z,58.51
2017-07-25T04:12:03.473Z,58.51
2017-07-25T04:12:43.930Z,58.32
2017-07-25T04:13:24.385Z,58.73
2017-07-25T04:14:04.836Z,58.45
2017-07-25T04:14:45.303Z,58.45
2017-07-25T04:15:25.751Z,58.35
2017-07-25T04:16:06.207Z,58.15
2017-07-25T04:16:46.672Z,58.25
2017-07-25T04:17:27.130Z,58.35
2017-07-25T04:18:07.591Z,58.35
2017-07-25T04:18:48.048Z,58.25
2017-07-25T04:19:28.509Z,58.06
2017-07-25T04:20:08.957Z,58.35
2017-07-25T04:20:49.413Z,58.45
2017-07-25T04:21:29.865Z,58.35
2017-07-25T04:22:10.321Z,58.35
2017-07-25T04:22:50.776Z,58.35
2017-07-25T04:23:31.237Z,58.35
2017-07-25T04:24:11.699Z,58.35
2017-07-25T04:24:52.152Z,58.35
2017-07-25T04:25:32.611Z,58.45
2017-07-25T04:26:13.064Z,58.25
2017-07-25T04:26:53.521Z,58.25
2017-07-25T04:27:33.980Z,58.45
2017-07-25T04:28:14.440Z,58.15
2017-07-25T04:28:54.946Z,58.06
2017-07-25T04:29:35.353Z,57.77
2017-07-25T04:30:15.803Z,57.67
2017-07-25T04:30:56.260Z,58.35
2017-07-25T04:31:36.707Z,57.77
2017-07-25T04:32:17.167Z,58.35
2017-07-25T04:32:57.621Z,57.87
2017-07-25T04:33:38.076Z,57.67
2017-07-25T04:34:18.523Z,57.87
2017-07-25T04:34:58.981Z,57.87
2017-07-25T04:35:39.436Z,57.87
2017-07-25T04:36:19.893Z,57.87
2017-07-25T04:37:00.350Z,57.87
2017-07-25T04:37:40.808Z,57.87
2017-07-25T04:38:21.267Z,58.15
2017-07-25T04:39:01.727Z,58.15
2017-07-25T04:39:42.190Z,58.06
2017-07-25T04:40:22.640Z,58.06
2017-07-25T04:41:03.095Z,58.18
2017-07-25T04:41:43.548Z,58.06
2017-07-25T04:42:24.000Z,57.87
2017-07-25T04:43:04.449Z,57.77
2017-07-25T04:43:44.902Z,57.77
2017-07-25T04:44:25.364Z,57.67
2017-07-25T04:45:05.814Z,57.77
2017-07-25T04:45:46.270Z,57.57
2017-07-25T04:46:26.730Z,57.79
2017-07-25T04:47:07.175Z,57.96
2017-07-25T04:47:47.629Z,57.77
2017-07-25T04:48:28.086Z,57.96
2017-07-25T04:49:08.538Z,57.87
2017-07-25T04:49:48.995Z,57.89
2017-07-25T04:50:29.450Z,57.87
2017-07-25T04:51:09.913Z,57.89
2017-07-25T04:51:50.372Z,57.96
2017-07-25T04:52:30.828Z,57.67
2017-07-25T04:53:11.287Z,57.89
2017-07-25T04:53:51.739Z,57.87
2017-07-25T04:54:32.198Z,57.89
2017-07-25T04:55:12.653Z,57.87
2017-07-25T04:55:53.112Z,57.67
2017-07-25T04:56:33.564Z,57.57
2017-07-25T04:57:14.013Z,57.77
2017-07-25T04:57:54.478Z,57.77
2017-07-25T04:58:34.935Z,57.67
2017-07-25T04:59:15.394Z,57.77
2017-07-25T04:59:55.849Z,58.06
2017-07-25T05:00:36.302Z,57.7
2017-07-25T05:01:16.757Z,57.67
2017-07-25T05:01:57.231Z,58.06
2017-07-25T05:02:37.685Z,57.87
2017-07-25T05:03:18.139Z,57.87
2017-07-25T05:03:58.624Z,57.77
2017-07-25T05:04:39.076Z,57.87
2017-07-25T05:05:19.536Z,57.67
2017-07-25T05:05:59.994Z,57.77
2017-07-25T05:06:40.449Z,57.77
2017-07-25T05:07:20.904Z,58.15
2017-07-25T05:08:01.356Z,58.35
2017-07-25T05:08:41.815Z,58.35
2017-07-25T05:09:22.267Z,58.35
2017-07-25T05:10:02.734Z,58.45
2017-07-25T05:10:43.191Z,58.35
2017-07-25T05:11:23.649Z,58.25
2017-07-25T05:12:04.111Z,58.25
2017-07-25T05:12:44.566Z,58.25
2017-07-25T05:13:25.040Z,58.35
2017-07-25T05:14:05.452Z,58.45
2017-07-25T05:14:45.911Z,58.25
2017-07-25T05:15:26.369Z,58.25
2017-07-25T05:16:06.818Z,58.15
2017-07-25T05:16:47.279Z,58.15
2017-07-25T05:17:27.739Z,58.15
2017-07-25T05:18:08.181Z,58.15
2017-07-25T05:18:48.635Z,58.45
2017-07-25T05:19:29.100Z,58.25
2017-07-25T05:20:09.574Z,58.73
2017-07-25T05:20:50.031Z,58.83
2017-07-25T05:21:30.491Z,58.64
2017-07-25T05:22:10.948Z,58.67
2017-07-25T05:22:51.403Z,58.45
2017-07-25T05:23:31.855Z,58.45
2017-07-25T05:24:12.322Z,58.45
2017-07-25T05:24:52.769Z,58.73
2017-07-25T05:25:33.224Z,58.83
2017-07-25T05:26:13.672Z,58.45
2017-07-25T05:26:54.138Z,58.45
2017-07-25T05:27:34.598Z,58.54
2017-07-25T05:28:15.054Z,58.25
2017-07-25T05:28:55.506Z,58.45
2017-07-25T05:29:35.962Z,58.35
2017-07-25T05:30:16.461Z,58.45
2017-07-25T05:30:56.906Z,58.45
2017-07-25T05:31:37.358Z,58.73
2017-07-25T05:32:17.812Z,58.45
2017-07-25T05:32:58.264Z,58.83
2017-07-25T05:33:38.723Z,58.93
2017-07-25T05:34:20.418Z,58.54
2017-07-25T05:35:00.882Z,58.64
2017-07-25T05:35:41.328Z,58.73
2017-07-25T05:36:21.774Z,58.83
2017-07-25T05:37:02.226Z,59.02
2017-07-25T05:37:42.684Z,59.12
2017-07-25T05:38:23.150Z,59.22
2017-07-25T05:39:03.613Z,59.02
2017-07-25T05:39:44.068Z,59.02
2017-07-25T05:40:24.528Z,59.02
2017-07-25T05:41:04.977Z,59.02
2017-07-25T05:41:45.437Z,59.02
2017-07-25T05:42:25.896Z,59.12
2017-07-25T05:43:06.353Z,59.22
2017-07-25T05:43:46.812Z,59.22
2017-07-25T05:44:27.267Z,59.31
2017-07-25T05:45:07.716Z,58.93
2017-07-25T05:45:48.170Z,59.12
2017-07-25T05:46:28.620Z,59.12
2017-07-25T05:47:09.099Z,59.22
2017-07-25T05:47:49.551Z,58.93
2017-07-25T05:48:30.004Z,59.12
2017-07-25T05:49:10.460Z,59.12
2017-07-25T05:49:50.913Z,59.22
2017-07-25T05:50:31.371Z,59.12
2017-07-25T05:51:11.822Z,59.12
2017-07-25T05:51:52.271Z,59.12
2017-07-25T05:52:32.736Z,59.22
2017-07-25T05:53:13.195Z,59.22
2017-07-25T05:53:53.647Z,59.12
2017-07-25T05:54:34.106Z,59.22
2017-07-25T05:55:14.565Z,59.12
2017-07-25T05:55:55.064Z,59.22
2017-07-25T05:56:35.464Z,59.22
2017-07-25T05:57:15.922Z,59.31
2017-07-25T05:57:56.375Z,59.22
2017-07-25T05:58:36.817Z,59.12
2017-07-25T05:59:17.279Z,58.93
2017-07-25T05:59:57.730Z,58.83
2017-07-25T06:00:38.187Z,59.22
2017-07-25T06:01:18.649Z,59.12
2017-07-25T06:01:59.103Z,59.31
2017-07-25T06:02:39.555Z,59.31
2017-07-25T06:03:20.014Z,58.93
2017-07-25T06:04:00.471Z,59.31
2017-07-25T06:04:40.930Z,59.22
2017-07-25T06:05:21.391Z,59.02
2017-07-25T06:06:01.847Z,59.02
2017-07-25T06:06:42.297Z,59.31
2017-07-25T06:07:22.754Z,59.22
2017-07-25T06:08:03.213Z,59.22
2017-07-25T06:08:43.665Z,59.41
2017-07-25T06:09:24.117Z,59.12
2017-07-25T06:10:04.576Z,59.22
2017-07-25T06:10:45.027Z,59.12
2017-07-25T06:11:25.521Z,59.31
2017-07-25T06:12:05.967Z,59.51
2017-07-25T06:12:46.422Z,59.51
2017-07-25T06:13:26.875Z,59.6
2017-07-25T06:14:07.327Z,59.6
2017-07-25T06:14:47.781Z,59.7
2017-07-25T06:15:28.246Z,59.6
2017-07-25T06:16:08.693Z,59.51
2017-07-25T06:16:49.144Z,59.7
2017-07-25T06:17:29.597Z,59.51
2017-07-25T06:18:10.061Z,59.7
2017-07-25T06:18:50.519Z,59.6
2017-07-25T06:19:30.979Z,59.51
2017-07-25T06:20:11.427Z,59.7
2017-07-25T06:20:51.884Z,59.51
2017-07-25T06:21:32.335Z,59.7
2017-07-25T06:22:12.792Z,59.41
2017-07-25T06:22:53.245Z,59.6
2017-07-25T06:23:33.696Z,59.51
2017-07-25T06:24:14.152Z,59.51
2017-07-25T06:24:54.608Z,59.6
2017-07-25T06:25:35.064Z,59.8
2017-07-25T06:26:15.528Z,59.7
2017-07-25T06:26:55.981Z,59.7
2017-07-25T06:27:36.444Z,59.8
2017-07-25T06:28:16.900Z,59.51
2017-07-25T06:28:57.365Z,59.6
2017-07-25T06:29:37.805Z,59.99
2017-07-25T06:30:18.266Z,59.99
2017-07-25T06:30:58.724Z,59.99
2017-07-25T06:31:39.177Z,59.99
2017-07-25T06:32:19.631Z,59.99
2017-07-25T06:33:00.087Z,59.99
2017-07-25T06:33:40.545Z,59.51
2017-07-25T06:34:20.989Z,59.7
2017-07-25T06:35:01.446Z,59.89
2017-07-25T06:35:41.899Z,59.89
2017-07-25T06:36:22.348Z,59.89
2017-07-25T06:37:02.847Z,59.8
2017-07-25T06:37:43.276Z,59.8
2017-07-25T06:38:23.733Z,59.8
2017-07-25T06:39:04.178Z,59.99
2017-07-25T06:39:44.639Z,59.89
2017-07-25T06:40:25.097Z,59.99
2017-07-25T06:41:05.538Z,59.89
2017-07-25T06:41:45.988Z,60.09
2017-07-25T06:42:26.437Z,60.09
2017-07-25T06:43:06.902Z,59.89
2017-07-25T06:43:47.521Z,60.09
2017-07-25T06:44:28.035Z,59.7
2017-07-25T06:45:08.490Z,59.7
2017-07-25T06:45:48.941Z,59.7
2017-07-25T06:46:29.390Z,59.7
2017-07-25T06:47:09.855Z,59.7
2017-07-25T06:47:50.309Z,59.7
2017-07-25T06:48:30.761Z,59.8
2017-07-25T06:49:11.205Z,59.89
2017-07-25T06:49:51.668Z,59.8
2017-07-25T06:50:32.119Z,59.89
2017-07-25T06:51:12.572Z,59.41
2017-07-25T06:51:53.027Z,59.8
2017-07-25T06:52:33.491Z,59.6
2017-07-25T06:53:13.928Z,59.6
2017-07-25T06:53:54.380Z,59.8
2017-07-25T06:54:34.834Z,59.51
2017-07-25T06:55:15.362Z,59.6
2017-07-25T06:55:55.824Z,59.6
2017-07-25T06:56:36.279Z,59.8
2017-07-25T06:57:16.734Z,59.8
2017-07-25T06:57:57.189Z,59.99
2017-07-25T06:58:37.671Z,59.6
2017-07-25T06:59:18.120Z,59.6
2017-07-25T06:59:58.576Z,59.99
2017-07-25T07:00:39.001Z,59.6
2017-07-25T07:01:19.546Z,59.6
2017-07-25T07:02:00.004Z,60.09
2017-07-25T07:02:40.458Z,59.8
2017-07-25T07:03:20.923Z,59.8
2017-07-25T07:04:01.381Z,59.89
2017-07-25T07:04:41.840Z,59.7
2017-07-25T07:05:22.287Z,59.8
2017-07-25T07:06:02.737Z,59.8
2017-07-25T07:06:43.190Z,59.8
2017-07-25T07:07:23.646Z,60.09
2017-07-25T07:08:04.093Z,59.8
2017-07-25T07:08:44.551Z,59.41
2017-07-25T07:09:25.002Z,59.51
2017-07-25T07:10:05.456Z,59.8
2017-07-25T07:10:45.909Z,59.51
2017-07-25T07:11:26.362Z,59.6
2017-07-25T07:12:06.818Z,59.6
2017-07-25T07:12:47.289Z,59.7
2017-07-25T07:13:27.750Z,59.7
2017-07-25T07:14:08.211Z,59.7
2017-07-25T07:14:48.675Z,59.8
2017-07-25T07:15:29.118Z,59.89
2017-07-25T07:16:09.573Z,59.99
2017-07-25T07:16:50.030Z,59.89
2017-07-25T07:17:30.478Z,59.8
2017-07-25T07:18:10.940Z,59.89
2017-07-25T07:18:51.395Z,59.6
2017-07-25T07:19:31.852Z,59.8
2017-07-25T07:20:12.309Z,59.7
2017-07-25T07:20:52.770Z,59.99
2017-07-25T07:21:33.219Z,59.8
2017-07-25T07:22:13.673Z,59.89
2017-07-25T07:22:54.129Z,59.51
2017-07-25T07:23:34.583Z,59.99
2017-07-25T07:24:15.042Z,59.99
2017-07-25T07:24:55.501Z,59.7
2017-07-25T07:25:35.953Z,59.99
2017-07-25T07:26:16.405Z,59.8
2017-07-25T07:26:56.867Z,59.89
2017-07-25T07:27:37.316Z,59.99
2017-07-25T07:28:17.771Z,59.8
2017-07-25T07:28:58.227Z,59.99
2017-07-25T07:29:38.689Z,59.89
2017-07-25T07:30:19.138Z,60.18
2017-07-25T07:30:59.594Z,59.7
2017-07-25T07:31:40.049Z,59.8
2017-07-25T07:32:20.513Z,60.28
2017-07-25T07:33:00.965Z,59.99
2017-07-25T07:33:41.427Z,59.7
2017-07-25T07:34:21.873Z,59.89
2017-07-25T07:35:02.328Z,59.8
2017-07-25T07:35:42.784Z,59.8
2017-07-25T07:36:23.239Z,59.8
2017-07-25T07:37:03.694Z,59.89
2017-07-25T07:37:44.152Z,59.8
2017-07-25T07:38:24.594Z,59.99
2017-07-25T07:39:05.055Z,59.89
2017-07-25T07:39:45.508Z,59.7
2017-07-25T07:40:25.966Z,59.7
2017-07-25T07:41:06.420Z,59.8
2017-07-25T07:41:46.877Z,59.8
2017-07-25T07:42:27.328Z,59.99
2017-07-25T07:43:07.792Z,59.7
2017-07-25T07:43:48.248Z,59.89
2017-07-25T07:44:28.705Z,59.8
2017-07-25T07:45:09.153Z,59.99
2017-07-25T07:45:49.605Z,59.99
2017-07-25T07:46:30.064Z,59.99
2017-07-25T07:47:10.525Z,59.89
2017-07-25T07:47:50.983Z,59.99
2017-07-25T07:48:31.442Z,59.7
2017-07-25T07:49:11.911Z,59.7
2017-07-25T07:49:52.365Z,59.8
2017-07-25T07:50:32.824Z,60.09
2017-07-25T07:51:13.279Z,59.8
2017-07-25T07:51:53.735Z,60.09
2017-07-25T07:52:34.190Z,59.89
2017-07-25T07:53:14.648Z,60.09
2017-07-25T07:53:55.110Z,59.7
2017-07-25T07:54:35.566Z,59.31
2017-07-25T07:55:16.025Z,59.89
2017-07-25T07:55:56.487Z,59.8
2017-07-25T07:56:36.934Z,59.6
2017-07-25T07:57:17.377Z,59.8
2017-07-25T07:57:57.842Z,59.6
2017-07-25T07:58:38.301Z,59.51
2017-07-25T07:59:18.751Z,59.89
2017-07-25T07:59:59.199Z,59.89
2017-07-25T08:00:39.651Z,59.8
2017-07-25T08:01:20.115Z,59.51
2017-07-25T08:02:00.568Z,60.09
2017-07-25T08:02:41.022Z,59.99
2017-07-25T08:03:21.475Z,59.99
2017-07-25T08:04:01.920Z,59.8
2017-07-25T08:04:42.379Z,59.6
2017-07-25T08:05:22.839Z,59.99
2017-07-25T08:06:03.293Z,59.7
2017-07-25T08:06:43.745Z,59.89
2017-07-25T08:07:24.207Z,59.7
2017-07-25T08:08:04.671Z,59.7
2017-07-25T08:08:45.133Z,59.99
2017-07-25T08:09:25.629Z,59.8
2017-07-25T08:10:06.081Z,59.8
2017-07-25T08:10:46.536Z,59.6
2017-07-25T08:11:27.000Z,59.7
2017-07-25T08:12:07.454Z,59.8
2017-07-25T08:12:47.910Z,59.89
2017-07-25T08:13:28.374Z,59.89
2017-07-25T08:14:08.828Z,59.7
2017-07-25T08:14:49.284Z,59.89
2017-07-25T08:15:29.743Z,59.99
2017-07-25T08:16:10.424Z,59.8
2017-07-25T08:16:50.912Z,59.7
2017-07-25T08:17:31.351Z,59.6
2017-07-25T08:18:11.747Z,59.6
2017-07-25T08:18:52.202Z,59.89
2017-07-25T08:19:32.804Z,59.6
2017-07-25T08:20:13.337Z,59.6
2017-07-25T08:20:53.792Z,59.8
2017-07-25T08:21:34.250Z,59.7
2017-07-25T08:22:14.698Z,59.6
2017-07-25T08:22:55.374Z,59.89
2017-07-25T08:23:35.972Z,59.6
2017-07-25T08:24:16.426Z,59.8
2017-07-25T08:24:56.877Z,59.8
2017-07-25T08:25:37.332Z,59.99
2017-07-25T08:26:17.802Z,59.7
2017-07-25T08:26:58.262Z,59.99
2017-07-25T08:27:38.736Z,59.8
2017-07-25T08:28:19.199Z,59.8
2017-07-25T08:28:59.658Z,60.09
2017-07-25T08:29:40.134Z,59.7
2017-07-25T08:30:20.596Z,59.7
2017-07-25T08:31:01.054Z,59.7
2017-07-25T08:31:41.612Z,59.7
2017-07-25T08:32:22.126Z,59.89
2017-07-25T08:33:02.568Z,59.8
2017-07-25T08:33:43.272Z,59.7
2017-07-25T08:34:23.724Z,59.8
2017-07-25T08:35:04.202Z,59.8
2017-07-25T08:35:44.632Z,59.8
2017-07-25T08:36:25.089Z,59.8
2017-07-25T08:37:05.551Z,59.89
2017-07-25T08:37:46.005Z,59.8
2017-07-25T08:38:26.464Z,59.6
2017-07-25T08:39:06.980Z,59.7
2017-07-25T08:39:47.438Z,59.8
2017-07-25T08:40:27.989Z,59.6
2017-07-25T08:41:08.400Z,60.09
2017-07-25T08:41:48.881Z,60.09
2017-07-25T08:42:29.462Z,59.8
2017-07-25T08:43:09.843Z,59.6
2017-07-25T08:43:50.301Z,60.09
2017-07-25T08:44:30.755Z,59.51
2017-07-25T08:45:11.448Z,60.09